LJCE METAR and TAF | Updated Today

LJCE METAR

Cerklje Airport

Observation time: 18 min. ago

LJCE 060900Z 27003KT 9999 FEW004 BKN057 03/03 Q1010 RMK BLU

Need help? Read our tutorial on how to read METARs or read the parsed version below.

Cerklje Airport (LJCE) METAR

  • Weather conditions on Mon, 06 Dec 2021 09:00:00 +0000 (18 min. ago):
  • Present conditions: Dry
  • Clouds: A few at 122 meters; broken sky at 1737 meters
  • Visibility: Greater than 10 km
  • Wind: 270 degrees at 3 knots
  • Temperature: 3 celsius
  • Dew point: 3 celsius
  • Pressure: 1010 millibars
  • Remarks: BLU


Useful to know...

LJCE TAF

Cerklje Airport

TAF LJCE 060800Z 0609/0618 VRB02KT 9999 FEW005
Observation time: 78 min. ago
Need help? Read our tutorial on how to read TAFs or read the parsed version below.

Parsed version of TAF for Cerklje Airport (LJCE)

  • From 06 December at 09:00 UTC, to day 06 of the month at 18:00 UTC
  • Clouds: A few at 152 meters
  • Visibility: Greater than 10 km
  • Wind: Variable at 2